Bw Prince — LADQ7 — position and weather

sailwx.info

Track history (hours):
 
Tides and Currents Weather Stations Pressure Air Temp Water Temp Dewpoint Dewpoint Depression Visibility Wind Speed Wind Dir Waves Ship Positions

Bw Prince

Last reported at 2015-Jan-26 04:26 UTC. Time now 2015-Jan-26 22:31 UTC.
Position N 01°52' E 102°28'.

Length 225 m; draft 7.7 m.

Type: Tanker. MMSI: 259708000.

Date/timePositionNaut miles runAvg speedWind from/ knotsBaromVisibWave heightAir tempDewpointWater temp
2015-Jan-26 04:26N 01°52' E 102°28'1314.9
2015-Jan-26 03:33N 01°46' E 102°40'73 6.0
2015-Jan-25 15:27N 01°10' E 103°43'0 0.0
2015-Jan-25 14:06N 01°10' E 103°43'0 0.0
2015-Jan-25 13:09N 01°10' E 103°43'0 0.0
2015-Jan-25 12:30N 01°10' E 103°43'0 0.0
2015-Jan-25 11:06N 01°10' E 103°43'0 0.0
2015-Jan-25 10:24N 01°10' E 103°43'0 0.0
2015-Jan-25 09:33N 01°10' E 103°43'0 0.1
2015-Jan-25 07:27N 01°10' E 103°43'0 0.0
2015-Jan-25 06:33N 01°10' E 103°43'0 0.0
2015-Jan-25 04:03N 01°10' E 103°43'0 0.1
2015-Jan-25 02:16N 01°10' E 103°43'4 4.5
2015-Jan-25 01:18N 01°11' E 103°47'810.9
2015-Jan-25 00:32N 01°14' E 103°55'1010.3
2015-Jan-24 23:32N 01°16' E 104°05'  
2015-Jan-19 09:25N 30°25' E 122°48'1416.6
2015-Jan-19 08:33N 30°30' E 122°32'1717.0
2015-Jan-19 07:33N 30°33' E 122°13'1413.9
2015-Jan-19 06:33N 30°31' E 121°57'1515.2
2015-Jan-19 05:33N 30°30' E 121°39'1313.4
2015-Jan-19 04:33N 30°33' E 121°24'1110.7
2015-Jan-19 03:33N 30°41' E 121°16'0 0.0
2015-Jan-17 02:33N 30°41' E 121°16'3 2.7
2015-Jan-17 01:33N 30°38' E 121°16'4 2.9
2015-Jan-17 00:20N 30°35' E 121°16'2 1.9
2015-Jan-16 23:33N 30°34' E 121°17'1111.2
2015-Jan-16 22:33N 30°32' E 121°30'1313.3
2015-Jan-16 21:34N 30°30' E 121°45'1312.7
2015-Jan-16 20:33N 30°32' E 122°00'1313.0
2015-Jan-16 19:33N 30°34' E 122°15'1312.8
2015-Jan-16 18:32N 30°31' E 122°30'1312.3
2015-Jan-16 17:26N 30°27' E 122°45'1111.0
2015-Jan-16 16:27N 30°21' E 122°55'50 9.8
2015-Jan-16 11:23N 29°31' E 122°52'  
Track history (hours):
 
Tides and Currents Weather Stations Pressure Air Temp Water Temp Dewpoint Dewpoint Depression Visibility Wind Speed Wind Dir Waves Ship Positions

Bw Prince

Last reported at 2015-Jan-26 04:26 UTC. Time now 2015-Jan-26 22:31 UTC.
Position N 01°52' E 102°28'.

Length 225 m; draft 7.7 m.

Type: Tanker. MMSI: 259708000.

Date/timePositionNaut miles runAvg speedWind from/ knotsBaromVisibWave heightAir tempDewpointWater temp
2015-Jan-26 04:26N 01°52' E 102°28'1314.9
2015-Jan-26 03:33N 01°46' E 102°40'73 6.0
2015-Jan-25 15:27N 01°10' E 103°43'0 0.0
2015-Jan-25 14:06N 01°10' E 103°43'0 0.0
2015-Jan-25 13:09N 01°10' E 103°43'0 0.0
2015-Jan-25 12:30N 01°10' E 103°43'0 0.0
2015-Jan-25 11:06N 01°10' E 103°43'0 0.0
2015-Jan-25 10:24N 01°10' E 103°43'0 0.0
2015-Jan-25 09:33N 01°10' E 103°43'0 0.1
2015-Jan-25 07:27N 01°10' E 103°43'0 0.0
2015-Jan-25 06:33N 01°10' E 103°43'0 0.0
2015-Jan-25 04:03N 01°10' E 103°43'0 0.1
2015-Jan-25 02:16N 01°10' E 103°43'4 4.5
2015-Jan-25 01:18N 01°11' E 103°47'810.9
2015-Jan-25 00:32N 01°14' E 103°55'1010.3
2015-Jan-24 23:32N 01°16' E 104°05'  
2015-Jan-19 09:25N 30°25' E 122°48'1416.6
2015-Jan-19 08:33N 30°30' E 122°32'1717.0
2015-Jan-19 07:33N 30°33' E 122°13'1413.9
2015-Jan-19 06:33N 30°31' E 121°57'1515.2
2015-Jan-19 05:33N 30°30' E 121°39'1313.4
2015-Jan-19 04:33N 30°33' E 121°24'1110.7
2015-Jan-19 03:33N 30°41' E 121°16'0 0.0
2015-Jan-17 02:33N 30°41' E 121°16'3 2.7
2015-Jan-17 01:33N 30°38' E 121°16'4 2.9
2015-Jan-17 00:20N 30°35' E 121°16'2 1.9
2015-Jan-16 23:33N 30°34' E 121°17'1111.2
2015-Jan-16 22:33N 30°32' E 121°30'1313.3
2015-Jan-16 21:34N 30°30' E 121°45'1312.7
2015-Jan-16 20:33N 30°32' E 122°00'1313.0
2015-Jan-16 19:33N 30°34' E 122°15'1312.8
2015-Jan-16 18:32N 30°31' E 122°30'1312.3
2015-Jan-16 17:26N 30°27' E 122°45'1111.0
2015-Jan-16 16:27N 30°21' E 122°55'50 9.8
2015-Jan-16 11:23N 29°31' E 122°52'  

Dump ship's entire track history